Time;durP1;ratioP1;P1;durP2;ratioP2;P2;SDS_P1;SDS_P2;PMS_P1;PMS_P2;Temp;Humidity;BMP_temperature;BMP_pressure;BME280_temperature;BME280_humidity;BME280_pressure;Samples;Min_cycle;Max_cycle;Signal;HPM_P1;HPM_P2
2021/06/10 00:01:24;;;;;;;22.08;17.13;;;;;;;-139.48;100.00;61774.03;5006632;28;20091;-69
2021/06/10 00:04:07;;;;;;;23.42;17.42;;;;;;;-139.48;100.00;61774.03;5020005;28;20045;-69
2021/06/10 00:06:51;;;;;;;23.30;17.42;;;;;;;-139.48;100.00;61774.03;5035128;28;20051;-69
2021/06/10 00:09:35;;;;;;;21.48;17.00;;;;;;;-139.48;100.00;61774.03;5020373;28;20191;-69
2021/06/10 00:12:20;;;;;;;18.88;15.90;;;;;;;-139.48;100.00;61774.03;5006173;28;20125;-69
2021/06/10 00:15:06;;;;;;;19.10;15.60;;;;;;;-139.48;100.00;61774.03;5019753;28;20516;-69
2021/06/10 00:17:51;;;;;;;24.77;17.23;;;;;;;-139.48;100.00;61774.03;5019853;28;20128;-68
2021/06/10 00:20:38;;;;;;;22.20;16.60;;;;;;;-139.48;100.00;61774.03;5006298;28;20052;-68
2021/06/10 00:23:22;;;;;;;19.52;16.50;;;;;;;-139.48;100.00;61774.03;5005745;28;20437;-69
2021/06/10 00:26:06;;;;;;;19.17;16.00;;;;;;;-139.48;100.00;61774.03;5005985;28;20121;-69
2021/06/10 00:28:51;;;;;;;18.45;15.77;;;;;;;-139.48;100.00;61774.03;5005905;28;20099;-68
2021/06/10 00:31:35;;;;;;;21.75;16.33;;;;;;;-139.48;100.00;61774.03;5019745;28;20111;-69
2021/06/10 00:34:19;;;;;;;18.75;14.70;;;;;;;-139.48;100.00;61774.03;5019415;28;20048;-67
2021/06/10 00:37:03;;;;;;;20.67;16.00;;;;;;;-139.48;100.00;61774.03;5019351;28;20132;-69
2021/06/10 00:39:47;;;;;;;19.98;14.95;;;;;;;-139.48;100.00;61774.03;5005946;28;20410;-69
2021/06/10 00:42:30;;;;;;;15.25;13.65;;;;;;;-139.48;100.00;61774.03;5034213;28;20053;-69
2021/06/10 00:45:18;;;;;;;16.50;13.30;;;;;;;-139.48;100.00;61774.03;5034317;28;20060;-69
2021/06/10 00:48:03;;;;;;;17.85;14.20;;;;;;;-139.48;100.00;61774.03;5019393;28;20131;-69
2021/06/10 00:50:47;;;;;;;16.38;14.60;;;;;;;-139.48;100.00;61774.03;5019194;28;20064;-69
2021/06/10 00:53:32;;;;;;;18.48;14.35;;;;;;;-139.48;100.00;61774.03;5019495;28;20060;-69
2021/06/10 00:56:16;;;;;;;17.67;15.18;;;;;;;-139.48;100.00;61774.03;5019243;28;20505;-69
2021/06/10 00:59:01;;;;;;;19.58;15.40;;;;;;;-139.48;100.00;61774.03;5034255;28;20083;-69
2021/06/10 01:01:44;;;;;;;20.90;16.88;;;;;;;-139.48;100.00;61774.03;5019233;28;20095;-68
2021/06/10 01:04:28;;;;;;;27.40;17.40;;;;;;;-139.48;100.00;61774.03;5034185;28;20048;-69
2021/06/10 01:07:19;;;;;;;21.27;16.60;;;;;;;-139.48;100.00;61774.03;5019054;28;20100;-69
2021/06/10 01:10:06;;;;;;;20.92;17.08;;;;;;;-139.48;100.00;61774.03;5019264;28;20406;-69
2021/06/10 01:12:51;;;;;;;24.40;18.42;;;;;;;-139.48;100.00;61774.03;5033852;28;20052;-69
2021/06/10 01:15:40;;;;;;;22.52;16.95;;;;;;;-139.48;100.00;61774.03;5033693;28;20505;-69
2021/06/10 01:18:25;;;;;;;21.50;17.48;;;;;;;-139.48;100.00;61774.03;5018893;28;20107;-69
2021/06/10 01:21:09;;;;;;;22.70;16.90;;;;;;;-139.48;100.00;61774.03;5018580;28;20045;-69
2021/06/10 01:24:05;;;;;;;26.85;17.63;;;;;;;-139.48;100.00;61774.03;5018409;28;20052;-69
2021/06/10 01:27:11;;;;;;;22.20;17.77;;;;;;;-139.48;100.00;61774.03;5018745;28;20473;-69
2021/06/10 01:30:07;;;;;;;20.63;16.90;;;;;;;-139.48;100.00;61774.03;5018573;28;20099;-69
2021/06/10 01:32:53;;;;;;;23.33;16.42;;;;;;;-139.48;100.00;61774.03;5004872;28;20052;-69
2021/06/10 01:36:00;;;;;;;20.27;16.35;;;;;;;-139.48;100.00;61774.03;5004493;28;20560;-69
2021/06/10 01:38:47;;;;;;;25.05;16.52;;;;;;;-139.48;100.00;61774.03;5018398;28;20041;-69
2021/06/10 01:41:31;;;;;;;23.50;17.52;;;;;;;-139.48;100.00;61774.03;5004568;28;20522;-69
2021/06/10 01:44:15;;;;;;;20.98;16.05;;;;;;;-139.48;100.00;61774.03;5017928;28;20478;-67
2021/06/10 01:47:00;;;;;;;25.10;17.80;;;;;;;-139.48;100.00;61774.03;5018569;28;20163;-69
2021/06/10 01:49:44;;;;;;;19.40;16.83;;;;;;;-139.48;100.00;61774.03;5018323;28;20124;-69
2021/06/10 01:52:28;;;;;;;25.08;17.75;;;;;;;-139.48;100.00;61774.03;5018221;28;20418;-69
2021/06/10 01:55:14;;;;;;;19.85;17.70;;;;;;;-139.48;100.00;61774.03;5018278;28;20478;-69
2021/06/10 01:57:59;;;;;;;23.40;17.27;;;;;;;-139.48;100.00;61774.03;5017937;28;20049;-68
2021/06/10 02:00:45;;;;;;;23.27;17.63;;;;;;;-139.48;100.00;61774.03;5004310;28;20517;-68
2021/06/10 02:03:29;;;;;;;23.40;18.40;;;;;;;-139.48;100.00;61774.03;5004173;28;20103;-69
2021/06/10 02:06:14;;;;;;;23.45;17.30;;;;;;;-139.48;100.00;61774.03;5004208;28;20036;-69
2021/06/10 02:08:59;;;;;;;23.38;17.30;;;;;;;-139.48;100.00;61774.03;5017837;28;20056;-69
2021/06/10 02:11:45;;;;;;;20.52;16.85;;;;;;;-139.48;100.00;61774.03;5018242;28;20191;-69
2021/06/10 02:14:29;;;;;;;23.08;17.17;;;;;;;-139.48;100.00;61774.03;5018227;28;20040;-69
2021/06/10 02:17:16;;;;;;;23.10;18.02;;;;;;;-139.48;100.00;61774.03;5017852;28;20156;-69
2021/06/10 02:20:00;;;;;;;27.73;18.50;;;;;;;-139.48;100.00;61774.03;5017892;28;20055;-69
2021/06/10 02:22:45;;;;;;;21.85;18.77;;;;;;;-139.48;100.00;61774.03;5003470;28;20525;-69
2021/06/10 02:25:28;;;;;;;20.75;16.05;;;;;;;-139.48;100.00;61774.03;5017620;28;20113;-69
2021/06/10 02:28:12;;;;;;;17.50;14.57;;;;;;;-139.48;100.00;61774.03;5017844;28;20132;-69
2021/06/10 02:30:56;;;;;;;19.95;16.25;;;;;;;-139.48;100.00;61774.03;5017764;28;20076;-69
2021/06/10 02:33:43;;;;;;;19.70;15.43;;;;;;;-139.48;100.00;61774.03;5017937;28;20053;-67
2021/06/10 02:36:27;;;;;;;19.80;16.15;;;;;;;-139.48;100.00;61774.03;5017588;28;20052;-69
2021/06/10 02:39:12;;;;;;;20.48;16.63;;;;;;;-139.48;100.00;61774.03;5017488;28;20107;-69
2021/06/10 02:41:56;;;;;;;23.10;17.00;;;;;;;-139.48;100.00;61774.03;5003856;28;20179;-69
2021/06/10 02:44:43;;;;;;;27.10;19.65;;;;;;;-139.48;100.00;61774.03;5017558;28;20423;-68
2021/06/10 02:47:27;;;;;;;25.08;18.35;;;;;;;-139.48;100.00;61774.03;5017440;28;20118;-69
2021/06/10 02:50:15;;;;;;;19.52;16.52;;;;;;;-139.48;100.00;61774.03;5017682;28;20099;-69
2021/06/10 02:52:59;;;;;;;19.38;14.45;;;;;;;-139.48;100.00;61774.03;5003393;28;20091;-69
2021/06/10 02:55:45;;;;;;;21.00;16.83;;;;;;;-139.48;100.00;61774.03;5003988;28;20047;-69
2021/06/10 02:58:30;;;;;;;21.73;18.30;;;;;;;-139.48;100.00;61774.03;5003719;28;20052;-69
2021/06/10 03:01:14;;;;;;;15.90;13.38;;;;;;;-139.48;100.00;61774.03;5017392;28;20095;-68
2021/06/10 03:03:59;;;;;;;19.52;13.27;;;;;;;-139.48;100.00;61774.03;5003674;28;20583;-69
2021/06/10 03:06:43;;;;;;;24.23;19.67;;;;;;;-139.48;100.00;61774.03;5017463;28;20125;-69
2021/06/10 03:09:28;;;;;;;20.70;16.35;;;;;;;-139.48;100.00;61774.03;5003557;28;20049;-69
2021/06/10 03:12:14;;;;;;;25.40;19.70;;;;;;;-139.48;100.00;61774.03;5017106;28;20099;-69
2021/06/10 03:14:58;;;;;;;27.17;21.02;;;;;;;-139.48;100.00;61774.03;5003374;28;20048;-68
2021/06/10 03:17:42;;;;;;;27.45;18.80;;;;;;;-139.48;100.00;61774.03;5003271;28;20047;-69
2021/06/10 03:20:26;;;;;;;25.17;20.75;;;;;;;-139.48;100.00;61774.03;5003290;28;20151;-69
2021/06/10 03:23:11;;;;;;;25.95;19.55;;;;;;;-139.48;100.00;61774.03;5017322;28;20043;-68
2021/06/10 03:25:59;;;;;;;24.13;19.92;;;;;;;-139.48;100.00;61774.03;5017261;28;20072;-69
2021/06/10 03:28:43;;;;;;;24.38;19.75;;;;;;;-139.48;100.00;61774.03;5017183;28;20133;-69
2021/06/10 03:31:27;;;;;;;25.70;19.90;;;;;;;-139.48;100.00;61774.03;5017274;28;20111;-69
2021/06/10 03:34:11;;;;;;;23.65;18.48;;;;;;;-139.48;100.00;61774.03;5005167;28;20052;-69
2021/06/10 03:36:56;;;;;;;24.88;19.90;;;;;;;-139.48;100.00;61774.03;5020701;28;20107;-69
2021/06/10 03:39:41;;;;;;;25.20;19.08;;;;;;;-139.48;100.00;61774.03;5020783;28;20099;-69
2021/06/10 03:42:25;;;;;;;27.80;19.67;;;;;;;-139.48;100.00;61774.03;5020363;28;20141;-69
2021/06/10 03:45:13;;;;;;;28.48;19.05;;;;;;;-139.48;100.00;61774.03;5006535;28;20576;-69
2021/06/10 03:47:58;;;;;;;25.90;19.35;;;;;;;-139.48;100.00;61774.03;5070229;22;20105;-71
2021/06/10 03:50:42;;;;;;;23.77;19.15;;;;;;;-139.48;100.00;61774.03;5095455;28;20584;-72
2021/06/10 03:53:26;;;;;;;24.13;18.77;;;;;;;-139.48;100.00;61774.03;5080275;28;20105;-72
2021/06/10 03:56:10;;;;;;;26.17;18.90;;;;;;;-139.48;100.00;61774.03;5094467;28;20039;-70
2021/06/10 03:58:54;;;;;;;22.50;18.58;;;;;;;-139.48;100.00;61774.03;5094179;28;20514;-72
2021/06/10 04:01:38;;;;;;;24.27;19.75;;;;;;;-139.48;100.00;61774.03;5095492;28;20468;-72
2021/06/10 04:04:24;;;;;;;22.25;18.35;;;;;;;-139.48;100.00;61774.03;5094091;28;20181;-71
2021/06/10 04:07:08;;;;;;;21.13;17.70;;;;;;;-139.48;100.00;61774.03;5080136;28;20114;-72
2021/06/10 04:09:53;;;;;;;25.00;18.30;;;;;;;-139.48;100.00;61774.03;5079977;28;20133;-72
2021/06/10 04:12:36;;;;;;;29.48;17.33;;;;;;;-139.48;100.00;61774.03;5080012;28;20119;-72
2021/06/10 04:15:20;;;;;;;23.35;18.02;;;;;;;-139.48;100.00;61774.03;5093893;28;20046;-72
2021/06/10 04:18:05;;;;;;;27.25;18.92;;;;;;;-139.48;100.00;61774.03;5093940;28;20090;-71
2021/06/10 04:20:50;;;;;;;22.55;18.17;;;;;;;-139.48;100.00;61774.03;5095057;28;20043;-72
2021/06/10 04:23:34;;;;;;;21.20;17.77;;;;;;;-139.48;100.00;61774.03;5079770;28;20051;-72
2021/06/10 04:26:18;;;;;;;20.00;17.35;;;;;;;-139.48;100.00;61774.03;5094019;28;20088;-71
2021/06/10 04:29:02;;;;;;;22.63;18.98;;;;;;;-139.48;100.00;61774.03;5079896;28;20051;-71
2021/06/10 04:31:46;;;;;;;25.13;15.90;;;;;;;-139.48;100.00;61774.03;5093602;28;20515;-72
2021/06/10 04:34:30;;;;;;;22.50;17.75;;;;;;;-139.48;100.00;61774.03;5079470;28;20051;-72
2021/06/10 04:37:14;;;;;;;26.73;18.00;;;;;;;-139.48;100.00;61774.03;5079392;28;20140;-72
2021/06/10 04:39:58;;;;;;;22.60;18.00;;;;;;;-139.48;100.00;61774.03;5093631;28;20047;-72
2021/06/10 04:42:42;;;;;;;21.83;16.98;;;;;;;-139.48;100.00;61774.03;5093633;28;20074;-72
2021/06/10 04:45:26;;;;;;;21.63;16.23;;;;;;;-139.48;100.00;61774.03;5094209;28;20132;-72
2021/06/10 04:48:10;;;;;;;27.52;17.33;;;;;;;-139.48;100.00;61774.03;5093212;28;20190;-71
2021/06/10 04:50:53;;;;;;;21.65;17.23;;;;;;;-139.48;100.00;61774.03;5094467;28;20055;-71
2021/06/10 04:53:40;;;;;;;24.38;18.48;;;;;;;-139.48;100.00;61774.03;5079184;28;20150;-72
2021/06/10 04:56:24;;;;;;;19.92;16.63;;;;;;;-139.48;100.00;61774.03;5093755;28;20059;-71
2021/06/10 04:59:08;;;;;;;21.13;18.00;;;;;;;-139.48;100.00;61774.03;5094108;28;20047;-72
2021/06/10 05:01:52;;;;;;;22.00;18.42;;;;;;;-139.48;100.00;61774.03;5093219;28;20131;-72
2021/06/10 05:04:36;;;;;;;21.80;18.35;;;;;;;-139.48;100.00;61774.03;5078873;28;20093;-71
2021/06/10 05:07:20;;;;;;;21.58;17.95;;;;;;;-139.48;100.00;61774.03;5093934;28;20412;-72
2021/06/10 05:10:05;;;;;;;26.77;18.75;;;;;;;-139.48;100.00;61774.03;5078754;28;20054;-72
2021/06/10 05:12:49;;;;;;;24.60;19.42;;;;;;;-139.48;100.00;61774.03;5078799;28;20173;-72
2021/06/10 05:15:33;;;;;;;27.23;18.63;;;;;;;-139.48;100.00;61774.03;5092795;28;20051;-72
2021/06/10 05:18:17;;;;;;;22.33;18.77;;;;;;;-139.48;100.00;61774.03;5078294;28;20097;-71
2021/06/10 05:21:01;;;;;;;28.13;20.40;;;;;;;-139.48;100.00;61774.03;5092834;28;20142;-72
2021/06/10 05:23:44;;;;;;;25.70;19.40;;;;;;;-139.48;100.00;61774.03;5092487;28;20512;-72
2021/06/10 05:26:28;;;;;;;32.08;21.75;;;;;;;-139.48;100.00;61774.03;5078382;28;20512;-72
2021/06/10 05:29:12;;;;;;;28.77;20.35;;;;;;;-139.48;100.00;61774.03;5078456;28;20047;-72
2021/06/10 05:31:56;;;;;;;23.33;19.40;;;;;;;-139.48;100.00;61774.03;5078397;28;20066;-72
2021/06/10 05:34:40;;;;;;;29.58;21.20;;;;;;;-139.48;100.00;61774.03;5092807;28;20051;-72
2021/06/10 05:37:24;;;;;;;27.80;21.67;;;;;;;-139.48;100.00;61774.03;5093333;28;20189;-72
2021/06/10 05:40:09;;;;;;;27.60;21.30;;;;;;;-139.48;100.00;61774.03;5092539;28;20353;-72
2021/06/10 05:42:53;;;;;;;25.40;21.35;;;;;;;-139.48;100.00;61774.03;5092457;28;20078;-70
2021/06/10 05:45:38;;;;;;;29.02;22.55;;;;;;;-139.48;100.00;61774.03;5078105;28;20093;-71
2021/06/10 05:48:22;;;;;;;28.45;22.50;;;;;;;-139.48;100.00;61774.03;5092066;28;20067;-71
2021/06/10 05:51:06;;;;;;;27.67;22.02;;;;;;;-139.48;100.00;61774.03;5093270;28;20132;-72
2021/06/10 05:53:50;;;;;;;29.45;22.17;;;;;;;-139.48;100.00;61774.03;5092290;28;20093;-71
2021/06/10 05:56:34;;;;;;;27.52;22.17;;;;;;;-139.48;100.00;61774.03;5091553;28;20046;-72
2021/06/10 05:59:18;;;;;;;25.65;22.20;;;;;;;-139.48;100.00;61774.03;5077738;28;20140;-71
2021/06/10 06:02:02;;;;;;;27.98;22.08;;;;;;;-139.48;100.00;61774.03;5093293;28;20123;-72
2021/06/10 06:04:46;;;;;;;28.38;22.50;;;;;;;-139.48;100.00;61774.03;5091886;28;20519;-72
2021/06/10 06:07:30;;;;;;;26.13;21.48;;;;;;;-139.48;100.00;61774.03;5091940;28;20059;-72
2021/06/10 06:10:14;;;;;;;25.52;21.08;;;;;;;-139.48;100.00;61774.03;5077860;28;20500;-71
2021/06/10 06:13:01;;;;;;;23.75;20.95;;;;;;;-139.48;100.00;61774.03;5091810;28;20050;-72
2021/06/10 06:15:45;;;;;;;26.95;21.95;;;;;;;-139.48;100.00;61774.03;5092024;28;20073;-72
2021/06/10 06:18:29;;;;;;;29.10;21.02;;;;;;;-139.48;100.00;61774.03;5077370;28;20044;-72
2021/06/10 06:21:13;;;;;;;26.52;20.67;;;;;;;-139.48;100.00;61774.03;5091920;28;20047;-71
2021/06/10 06:23:58;;;;;;;23.85;18.15;;;;;;;-139.48;100.00;61774.03;5092067;28;20104;-72
2021/06/10 06:26:42;;;;;;;24.70;20.58;;;;;;;-139.48;100.00;61774.03;5077326;28;20055;-72
2021/06/10 06:29:26;;;;;;;28.52;21.27;;;;;;;-139.48;100.00;61774.03;5077550;28;20100;-72
2021/06/10 06:32:09;;;;;;;25.58;21.35;;;;;;;-139.48;100.00;61774.03;5091805;28;20127;-72
2021/06/10 06:34:53;;;;;;;23.08;20.58;;;;;;;-139.48;100.00;61774.03;5093104;28;20086;-72
2021/06/10 06:37:37;;;;;;;24.48;21.55;;;;;;;-139.48;100.00;61774.03;5092517;28;20066;-72
2021/06/10 06:40:26;;;;;;;25.85;21.02;;;;;;;-139.48;100.00;61774.03;5092095;28;20468;-71
2021/06/10 06:43:11;;;;;;;24.55;20.40;;;;;;;-139.48;100.00;61774.03;5091761;28;20132;-71
2021/06/10 06:45:55;;;;;;;26.50;20.63;;;;;;;-139.48;100.00;61774.03;5077538;28;20195;-71
2021/06/10 06:48:39;;;;;;;27.58;21.83;;;;;;;-139.48;100.00;61774.03;5091200;28;20051;-72
2021/06/10 06:51:23;;;;;;;21.15;17.38;;;;;;;-139.48;100.00;61774.03;5077320;28;20057;-72
2021/06/10 06:54:07;;;;;;;26.00;21.20;;;;;;;-139.48;100.00;61774.03;5091462;28;20047;-71
2021/06/10 06:56:51;;;;;;;23.55;20.20;;;;;;;-139.48;100.00;61774.03;5092545;28;20558;-72
2021/06/10 06:59:35;;;;;;;25.02;21.38;;;;;;;-139.48;100.00;61774.03;5091660;28;20150;-72
2021/06/10 07:02:19;;;;;;;23.58;20.10;;;;;;;-139.48;100.00;61774.03;5091335;28;20190;-71
2021/06/10 07:05:04;;;;;;;24.17;20.70;;;;;;;-139.48;100.00;61774.03;5091342;28;20097;-72
2021/06/10 07:07:48;;;;;;;25.63;20.50;;;;;;;-139.48;100.00;61774.03;5093392;28;20054;-72
2021/06/10 07:10:32;;;;;;;22.52;19.85;;;;;;;-139.48;100.00;61774.03;5081185;28;20360;-72
2021/06/10 07:13:16;;;;;;;25.38;21.23;;;;;;;-139.48;100.00;61774.03;5095216;28;20051;-72
2021/06/10 07:16:00;;;;;;;26.08;20.95;;;;;;;-139.48;100.00;61774.03;5095308;28;20405;-72
2021/06/10 07:18:44;;;;;;;25.08;21.23;;;;;;;-139.48;100.00;61774.03;5095214;28;20055;-72
2021/06/10 07:21:42;;;;;;;27.55;20.30;;;;;;;-139.48;100.00;61774.03;5096096;28;20055;-72
2021/06/10 07:24:26;;;;;;;25.17;20.52;;;;;;;-139.48;100.00;61774.03;5095148;28;20055;-72
2021/06/10 07:27:10;;;;;;;26.20;21.40;;;;;;;-139.48;100.00;61774.03;5095075;28;20043;-71
2021/06/10 07:29:55;;;;;;;20.20;17.85;;;;;;;-139.48;100.00;61774.03;5095101;28;20047;-72
2021/06/10 07:32:39;;;;;;;18.25;15.63;;;;;;;-139.48;100.00;61774.03;5095880;28;20090;-72
2021/06/10 07:35:23;;;;;;;28.30;21.00;;;;;;;-139.48;100.00;61774.03;5080612;28;20082;-72
2021/06/10 07:38:09;;;;;;;;;;;;;;;-139.48;100.00;61774.03;5095279;28;20066;-72
2021/06/10 07:40:53;;;;;;;23.60;18.90;;;;;;;-139.48;100.00;61774.03;5095206;28;20280;-72
2021/06/10 07:43:37;;;;;;;25.05;20.95;;;;;;;-139.48;100.00;61774.03;5095897;28;20120;-72
2021/06/10 07:46:21;;;;;;;20.52;18.38;;;;;;;-139.48;100.00;61774.03;5094696;28;20039;-72
2021/06/10 07:49:05;;;;;;;;;;;;;;;-139.48;100.00;61774.03;5094658;28;20515;-72
2021/06/10 07:51:49;;;;;;;24.73;19.90;;;;;;;-139.48;100.00;61774.03;5095730;28;20422;-72
2021/06/10 07:54:33;;;;;;;21.02;18.75;;;;;;;-139.48;100.00;61774.03;5094313;28;20100;-72
2021/06/10 07:57:17;;;;;;;22.67;19.65;;;;;;;-139.48;100.00;61774.03;5079816;28;20054;-72
2021/06/10 08:00:03;;;;;;;22.55;19.38;;;;;;;-139.48;100.00;61774.03;5094343;28;20055;-72
2021/06/10 08:02:48;;;;;;;23.73;19.08;;;;;;;-139.48;100.00;61774.03;5094654;28;20353;-73
2021/06/10 08:05:32;;;;;;;23.65;19.77;;;;;;;-139.48;100.00;61774.03;5094315;28;20047;-73
2021/06/10 08:08:16;;;;;;;;;;;;;;;-139.48;100.00;61774.03;5095437;28;20047;-72
2021/06/10 08:11:05;;;;;;;23.25;20.77;;;;;;;-139.48;100.00;61774.03;5094262;28;19919;-73
2021/06/10 08:13:50;;;;;;;18.85;16.85;;;;;;;-139.48;100.00;61774.03;5094245;28;20177;-73
2021/06/10 08:16:35;;;;;;;23.85;21.00;;;;;;;-139.48;100.00;61774.03;5094036;28;20635;-73
2021/06/10 08:19:18;;;;;;;24.33;21.52;;;;;;;-139.48;100.00;61774.03;5079084;28;20127;-72
2021/06/10 08:22:02;;;;;;;20.65;18.55;;;;;;;-139.48;100.00;61774.03;5079978;28;20200;-72
2021/06/10 08:24:47;;;;;;;22.00;18.92;;;;;;;-139.48;100.00;61774.03;5093998;28;20130;-73
2021/06/10 08:27:31;;;;;;;25.58;22.73;;;;;;;-139.48;100.00;61774.03;5093773;28;20466;-73
2021/06/10 08:30:15;;;;;;;24.27;21.17;;;;;;;-139.48;100.00;61774.03;5093996;28;20086;-71
2021/06/10 08:32:59;;;;;;;23.15;20.67;;;;;;;-139.48;100.00;61774.03;5093914;28;20116;-73
2021/06/10 08:35:43;;;;;;;22.25;19.48;;;;;;;-139.48;100.00;61774.03;5094029;28;20102;-72
2021/06/10 08:38:27;;;;;;;23.63;21.13;;;;;;;-139.48;100.00;61774.03;5093381;28;20043;-73
2021/06/10 08:41:11;;;;;;;24.48;20.10;;;;;;;-139.48;100.00;61774.03;5079231;28;20078;-73
2021/06/10 08:43:57;;;;;;;30.35;23.25;;;;;;;-139.48;100.00;61774.03;5093444;28;20523;-73
2021/06/10 08:46:41;;;;;;;28.10;22.52;;;;;;;-139.48;100.00;61774.03;5093418;28;20180;-72
2021/06/10 08:49:25;;;;;;;23.13;20.70;;;;;;;-139.48;100.00;61774.03;5079164;28;20487;-71
2021/06/10 08:52:08;;;;;;;;;;;;;;;-139.48;100.00;61774.03;5093837;28;20144;-73
2021/06/10 08:54:52;;;;;;;21.98;19.77;;;;;;;-139.48;100.00;61774.03;5078731;28;20288;-73
2021/06/10 08:57:36;;;;;;;;;;;;;;;-139.48;100.00;61774.03;5094586;28;20047;-72
2021/06/10 09:00:22;;;;;;;21.42;19.13;;;;;;;-139.48;100.00;61774.03;5093246;28;19961;-73
2021/06/10 09:03:07;;;;;;;20.92;18.73;;;;;;;-139.48;100.00;61774.03;5079070;28;20192;-73
2021/06/10 09:06:00;;;;;;;20.13;18.13;;;;;;;-139.48;100.00;61774.03;5094189;28;20154;-73
2021/06/10 09:08:46;;;;;;;19.35;16.85;;;;;;;-139.48;100.00;61774.03;5094037;28;20484;-73
2021/06/10 09:11:32;;;;;;;17.60;15.80;;;;;;;-139.48;100.00;61774.03;5078702;28;20405;-73
2021/06/10 09:14:16;;;;;;;21.70;17.80;;;;;;;-139.48;100.00;61774.03;5092571;28;20047;-73
2021/06/10 09:17:00;;;;;;;;;;;;;;;-139.48;100.00;61774.03;5078728;28;20519;-73
2021/06/10 09:19:44;;;;;;;20.17;17.13;;;;;;;-139.48;100.00;61774.03;5092945;28;19981;-73
2021/06/10 09:22:34;;;;;;;21.02;18.75;;;;;;;-139.48;100.00;61774.03;5093718;28;20469;-73
2021/06/10 09:25:21;;;;;;;17.98;16.17;;;;;;;-139.48;100.00;61774.03;5092570;28;20061;-73
2021/06/10 09:28:06;;;;;;;17.67;15.73;;;;;;;-139.48;100.00;61774.03;5092336;28;20520;-72
2021/06/10 09:30:52;;;;;;;17.70;15.93;;;;;;;-139.48;100.00;61774.03;5091874;28;20183;-73
2021/06/10 09:33:41;;;;;;;17.05;15.32;;;;;;;-139.48;100.00;61774.03;5092342;28;20511;-72
2021/06/10 09:36:25;;;;;;;16.17;14.60;;;;;;;-139.48;100.00;61774.03;5092180;28;20066;-71
2021/06/10 09:39:13;;;;;;;;;;;;;;;-139.48;100.00;61774.03;5092663;28;20557;-73
2021/06/10 09:42:12;;;;;;;16.40;14.73;;;;;;;-139.48;100.00;61774.03;5092492;28;19934;-73
2021/06/10 09:44:59;;;;;;;16.83;15.13;;;;;;;-139.48;100.00;61774.03;5078558;28;20416;-73
2021/06/10 09:47:46;;;;;;;18.25;14.43;;;;;;;-139.48;100.00;61774.03;5102927;22;20055;-69
2021/06/10 09:50:52;;;;;;;16.40;14.38;;;;;;;-139.48;100.00;61774.03;5057216;28;20105;-69
2021/06/10 09:53:36;;;;;;;16.63;14.93;;;;;;;-139.48;100.00;61774.03;5060167;28;20067;-69
2021/06/10 09:56:20;;;;;;;18.52;14.73;;;;;;;-139.48;100.00;61774.03;5043614;28;20105;-70
2021/06/10 09:59:06;;;;;;;17.35;15.20;;;;;;;-139.48;100.00;61774.03;5037830;28;20056;-70
2021/06/10 10:02:18;;;;;;;16.08;14.57;;;;;;;-139.48;100.00;61774.03;5023858;28;20043;-70
2021/06/10 10:05:08;;;;;;;15.23;13.77;;;;;;;-139.48;100.00;61774.03;5037656;28;20105;-69
2021/06/10 10:07:53;;;;;;;14.85;13.30;;;;;;;-139.48;100.00;61774.03;5037531;28;20132;-69
2021/06/10 10:10:37;;;;;;;16.33;14.70;;;;;;;-139.48;100.00;61774.03;5037497;28;20132;-69
2021/06/10 10:13:21;;;;;;;;;;;;;;;-139.48;100.00;61774.03;5038084;28;20229;-69
2021/06/10 10:16:05;;;;;;;;;;;;;;;-139.48;100.00;61774.03;5038075;28;19919;-70
2021/06/10 10:18:51;;;;;;;15.85;14.30;;;;;;;-139.48;100.00;61774.03;5023616;28;19919;-70
2021/06/10 10:21:36;;;;;;;17.60;14.68;;;;;;;-139.48;100.00;61774.03;5037771;28;20390;-69
2021/06/10 10:24:20;;;;;;;16.02;14.38;;;;;;;-139.48;100.00;61774.03;5052501;28;20067;-69
2021/06/10 10:27:09;;;;;;;14.98;13.48;;;;;;;-139.48;100.00;61774.03;5023410;28;20083;-70
2021/06/10 10:29:55;;;;;;;15.75;14.15;;;;;;;-139.48;100.00;61774.03;5023649;28;20517;-69
2021/06/10 10:32:41;;;;;;;13.00;11.80;;;;;;;-139.48;100.00;61774.03;5037593;28;20051;-69
2021/06/10 10:35:27;;;;;;;13.43;12.25;;;;;;;-139.48;100.00;61774.03;5037345;28;20048;-69
2021/06/10 10:38:12;;;;;;;14.13;12.70;;;;;;;-139.48;100.00;61774.03;5052303;28;20123;-69
2021/06/10 10:41:04;;;;;;;12.73;11.63;;;;;;;-139.48;100.00;61774.03;5037323;28;20047;-70
2021/06/10 10:43:49;;;;;;;13.40;12.20;;;;;;;-139.48;100.00;61774.03;5040811;28;20110;-70
2021/06/10 10:46:33;;;;;;;12.63;11.50;;;;;;;-139.48;100.00;61774.03;5041627;28;20115;-70
2021/06/10 10:49:22;;;;;;;12.73;11.60;;;;;;;-139.48;100.00;61774.03;5056340;28;20052;-70
2021/06/10 10:52:28;;;;;;;13.50;12.27;;;;;;;-139.48;100.00;61774.03;5041421;28;20091;-70
2021/06/10 10:55:16;;;;;;;12.50;11.35;;;;;;;-139.48;100.00;61774.03;5027415;28;20090;-70
2021/06/10 10:58:02;;;;;;;13.32;11.68;;;;;;;-139.48;100.00;61774.03;5041034;28;20094;-69
2021/06/10 11:00:57;;;;;;;11.55;10.40;;;;;;;-139.48;100.00;61774.03;5056369;28;20497;-71
2021/06/10 11:03:43;;;;;;;14.05;12.75;;;;;;;-139.48;100.00;61774.03;5027178;28;20059;-70
2021/06/10 11:06:28;;;;;;;15.80;14.15;;;;;;;-139.48;100.00;61774.03;5027020;28;20044;-69
2021/06/10 11:09:20;;;;;;;12.57;11.52;;;;;;;-139.48;100.00;61774.03;5041099;28;20052;-69
2021/06/10 11:12:10;;;;;;;12.65;11.55;;;;;;;-139.48;100.00;61774.03;5041932;28;20075;-70
2021/06/10 11:14:56;;;;;;;14.95;13.40;;;;;;;-139.48;100.00;61774.03;5041789;28;20055;-70
2021/06/10 11:17:44;;;;;;;14.63;10.82;;;;;;;-139.48;100.00;61774.03;5041172;28;20505;-70
2021/06/10 11:20:37;;;;;;;9.25;8.48;;;;;;;-139.48;100.00;61774.03;5040775;28;20497;-69
2021/06/10 11:23:26;;;;;;;10.45;9.13;;;;;;;-139.48;100.00;61774.03;5055868;28;20361;-69
2021/06/10 11:26:18;;;;;;;10.05;8.98;;;;;;;-139.48;100.00;61774.03;5041143;28;20139;-68
2021/06/10 11:29:03;;;;;;;10.80;9.90;;;;;;;-139.48;100.00;61774.03;5026961;28;20060;-70
2021/06/10 11:32:29;;;;;;;10.27;9.40;;;;;;;-139.48;100.00;61774.03;5055796;28;20504;-69
2021/06/10 11:35:26;;;;;;;10.45;9.45;;;;;;;-139.48;100.00;61774.03;5041429;28;20075;-70
2021/06/10 11:38:10;;;;;;;10.68;9.88;;;;;;;-139.48;100.00;61774.03;5026466;28;20064;-67
2021/06/10 11:41:00;;;;;;;9.80;9.10;;;;;;;-139.48;100.00;61774.03;5055592;28;20087;-69
2021/06/10 11:43:48;;;;;;;10.00;9.10;;;;;;;-139.48;100.00;61774.03;5055448;28;20409;-69
2021/06/10 11:46:35;;;;;;;13.65;11.85;;;;;;;-139.48;100.00;61774.03;5055339;28;20186;-70
2021/06/10 11:49:19;;;;;;;13.60;12.20;;;;;;;-139.48;100.00;61774.03;5026323;28;20161;-69
2021/06/10 11:52:03;;;;;;;13.05;11.80;;;;;;;-139.48;100.00;61774.03;5040308;28;20476;-69
2021/06/10 11:55:08;;;;;;;12.57;11.38;;;;;;;-139.48;100.00;61774.03;5038879;28;20044;-68
2021/06/10 11:57:54;;;;;;;12.93;11.65;;;;;;;-139.48;100.00;61774.03;5039861;28;20051;-68
2021/06/10 12:00:46;;;;;;;13.82;12.57;;;;;;;-139.48;100.00;61774.03;5039899;28;20051;-69
2021/06/10 12:03:38;;;;;;;12.38;11.32;;;;;;;-139.48;100.00;61774.03;5055181;28;20067;-69
2021/06/10 12:06:23;;;;;;;12.40;11.30;;;;;;;-139.48;100.00;61774.03;5040252;28;20047;-69
2021/06/10 12:09:13;;;;;;;11.80;10.80;;;;;;;-139.48;100.00;61774.03;5039714;28;20145;-69
2021/06/10 12:11:57;;;;;;;10.98;9.88;;;;;;;-139.48;100.00;61774.03;5039877;28;20124;-69
2021/06/10 12:14:41;;;;;;;11.10;10.10;;;;;;;-139.48;100.00;61774.03;5039820;28;20099;-69
2021/06/10 12:17:25;;;;;;;13.50;10.60;;;;;;;-139.48;100.00;61774.03;5039505;28;20122;-69
2021/06/10 12:20:23;;;;;;;11.13;10.13;;;;;;;-139.48;100.00;61774.03;5025551;28;20110;-69